createdAt,value
2019-05-17T00:01:48.570Z,78.00
2019-05-17T00:04:19.498Z,77.58
2019-05-17T00:06:50.520Z,78.43
2019-05-17T00:09:21.689Z,77.88
2019-05-17T00:11:52.672Z,77.72
2019-05-17T00:14:23.656Z,77.97
2019-05-17T00:16:57.111Z,77.60
2019-05-17T00:19:27.547Z,77.85
2019-05-17T00:21:58.847Z,77.06
2019-05-17T00:24:32.686Z,76.65
2019-05-17T00:27:03.580Z,76.76
2019-05-17T00:29:37.037Z,77.94
2019-05-17T00:32:07.328Z,77.82
2019-05-17T00:34:38.317Z,77.84
2019-05-17T00:37:09.390Z,76.57
2019-05-17T00:39:42.523Z,76.60
2019-05-17T00:42:13.454Z,76.19
2019-05-17T00:44:44.391Z,76.92
2019-05-17T00:47:17.118Z,77.96
2019-05-17T00:49:48.055Z,76.11
2019-05-17T00:52:19.084Z,78.04
2019-05-17T00:54:50.186Z,78.45
2019-05-17T00:57:21.086Z,77.50
2019-05-17T00:59:52.105Z,76.83
2019-05-17T01:02:23.212Z,77.25
2019-05-17T01:04:54.255Z,76.48
2019-05-17T01:07:26.879Z,77.14
2019-05-17T01:09:59.346Z,77.46
2019-05-17T01:12:30.600Z,76.49
2019-05-17T01:15:01.997Z,77.04
2019-05-17T01:17:33.095Z,77.28
2019-05-17T01:20:06.688Z,76.91
2019-05-17T01:22:37.068Z,76.59
2019-05-17T01:25:08.702Z,76.85
2019-05-17T01:27:39.789Z,76.18
2019-05-17T01:30:10.915Z,76.02
2019-05-17T01:32:42.101Z,76.65
2019-05-17T01:35:13.030Z,76.34
2019-05-17T01:37:44.067Z,76.59
2019-05-17T01:40:17.327Z,76.67
2019-05-17T01:42:47.878Z,76.31
2019-05-17T01:45:18.938Z,77.85
2019-05-17T01:50:38.869Z,77.33
2019-05-17T01:53:09.823Z,77.48
2019-05-17T01:55:41.317Z,77.36
2019-05-17T01:58:12.272Z,76.08
2019-05-17T02:00:43.338Z,76.18
2019-05-17T02:03:14.342Z,77.32
2019-05-17T02:05:47.343Z,76.98
2019-05-17T02:08:18.159Z,77.26
2019-05-17T02:10:49.154Z,76.78
2019-05-17T02:13:20.147Z,76.36
2019-05-17T02:15:51.031Z,75.69
2019-05-17T02:18:21.996Z,75.65
2019-05-17T02:20:52.942Z,77.78
2019-05-17T02:23:24.001Z,75.83
2019-05-17T02:25:56.980Z,75.87
2019-05-17T02:28:27.588Z,77.19
2019-05-17T02:30:58.564Z,76.28
2019-05-17T02:33:29.547Z,77.26
2019-05-17T02:36:02.721Z,77.44
2019-05-17T02:38:33.558Z,77.77
2019-05-17T02:41:06.225Z,77.66
2019-05-17T02:43:37.227Z,77.76
2019-05-17T02:46:08.266Z,77.89
2019-05-17T02:48:42.530Z,77.60
2019-05-17T02:51:13.132Z,77.38
2019-05-17T02:53:44.665Z,77.67
2019-05-17T02:56:15.555Z,77.59
2019-05-17T02:58:46.473Z,76.76
2019-05-17T03:01:17.485Z,75.81
2019-05-17T03:03:48.528Z,76.79
2019-05-17T03:06:22.566Z,76.49
2019-05-17T03:08:52.579Z,76.32
2019-05-17T03:11:23.778Z,77.07
2019-05-17T03:13:54.768Z,76.51
2019-05-17T03:16:25.742Z,76.16
2019-05-17T03:18:56.695Z,75.92
2019-05-17T03:21:27.638Z,76.13
2019-05-17T03:23:58.609Z,75.70
2019-05-17T03:26:32.550Z,74.91
2019-05-17T03:29:05.705Z,75.81
2019-05-17T03:31:47.611Z,76.66
2019-05-17T03:34:16.648Z,76.90
2019-05-17T03:36:46.641Z,76.85
2019-05-17T03:39:17.836Z,77.19
2019-05-17T03:41:48.836Z,76.07
2019-05-17T03:44:22.447Z,78.73
2019-05-17T03:46:53.201Z,78.58
2019-05-17T03:49:24.380Z,77.37
2019-05-17T03:51:55.347Z,78.59
2019-05-17T03:54:26.352Z,78.70
2019-05-17T03:56:57.395Z,78.82
2019-05-17T03:59:28.408Z,77.99
2019-05-17T04:01:59.343Z,78.66
2019-05-17T04:04:33.041Z,78.65
2019-05-17T04:07:03.535Z,78.41
2019-05-17T04:09:37.747Z,77.94
2019-05-17T04:12:13.333Z,78.24
2019-05-17T04:14:43.158Z,78.27
2019-05-17T04:17:14.232Z,78.71
2019-05-17T04:19:45.255Z,78.80
2019-05-17T04:22:16.266Z,78.96
2019-05-17T04:24:47.314Z,79.14
2019-05-17T04:27:18.274Z,78.33
2019-05-17T04:29:49.253Z,78.46
2019-05-17T04:32:24.587Z,79.09
2019-05-17T04:34:55.588Z,79.03
2019-05-17T04:37:26.614Z,79.04
2019-05-17T04:39:57.718Z,78.89
2019-05-17T04:42:28.733Z,78.99
2019-05-17T04:45:03.326Z,78.62
2019-05-17T04:47:33.267Z,78.48
2019-05-17T04:50:04.615Z,78.41
2019-05-17T04:52:35.656Z,79.30
2019-05-17T04:55:07.683Z,78.67
2019-05-17T04:57:44.002Z,79.04
2019-05-17T05:00:15.133Z,79.30
2019-05-17T05:02:46.174Z,78.77
2019-05-17T05:05:17.135Z,78.70
2019-05-17T05:07:48.204Z,78.72
2019-05-17T05:10:27.473Z,79.15
2019-05-17T05:12:58.459Z,78.99
2019-05-17T05:15:44.103Z,79.38
2019-05-17T05:18:14.902Z,78.88
2019-05-17T05:20:45.983Z,79.08
2019-05-17T05:23:17.064Z,79.21
2019-05-17T05:25:48.098Z,78.64
2019-05-17T05:28:22.351Z,78.97
2019-05-17T05:30:52.720Z,78.55
2019-05-17T05:33:23.871Z,77.85
2019-05-17T05:35:56.640Z,78.18
2019-05-17T05:38:27.899Z,78.72
2019-05-17T05:40:58.894Z,78.12
2019-05-17T05:43:29.705Z,77.78
2019-05-17T05:46:02.584Z,78.00
2019-05-17T05:48:33.700Z,76.98
2019-05-17T05:51:05.412Z,77.51
2019-05-17T05:53:36.905Z,77.39
2019-05-17T05:56:07.962Z,76.96
2019-05-17T05:58:38.811Z,76.77
2019-05-17T06:01:12.556Z,76.77
2019-05-17T06:03:43.352Z,77.18
2019-05-17T06:06:14.458Z,77.11
2019-05-17T06:08:45.544Z,77.09
2019-05-17T06:11:16.602Z,76.89
2019-05-17T06:13:47.521Z,76.66
2019-05-17T06:16:18.616Z,76.48
2019-05-17T06:18:51.552Z,76.63
2019-05-17T06:21:22.743Z,76.32
2019-05-17T06:23:53.941Z,76.27
2019-05-17T06:26:24.905Z,75.62
2019-05-17T06:28:55.905Z,76.18
2019-05-17T06:31:26.942Z,75.80
2019-05-17T06:33:57.954Z,75.28
2019-05-17T06:36:28.925Z,75.46
2019-05-17T06:39:02.096Z,75.29
2019-05-17T06:41:32.753Z,74.55
2019-05-17T06:44:03.790Z,75.01
2019-05-17T06:46:34.859Z,73.57
2019-05-17T06:49:06.272Z,72.85
2019-05-17T06:51:37.328Z,73.28
2019-05-17T06:54:08.278Z,73.51
2019-05-17T06:56:41.638Z,73.35
2019-05-17T06:59:12.759Z,73.19
2019-05-17T07:01:44.098Z,72.64
2019-05-17T07:04:16.305Z,73.00
2019-05-17T07:09:16.364Z,72.19
2019-05-17T07:14:19.961Z,72.68
2019-05-17T07:19:23.519Z,71.43
2019-05-17T07:24:23.718Z,71.31
2019-05-17T07:26:55.194Z,71.18
2019-05-17T07:34:24.800Z,70.44
2019-05-17T07:39:25.049Z,70.39
2019-05-17T07:44:25.493Z,70.18
2019-05-17T07:46:56.683Z,68.98
2019-05-17T07:49:46.653Z,68.67
2019-05-17T07:59:52.605Z,69.24
2019-05-17T08:04:54.600Z,68.97
2019-05-17T08:09:56.525Z,68.97
2019-05-17T08:14:59.687Z,69.00
2019-05-17T08:20:00.633Z,68.49
2019-05-17T08:25:01.893Z,68.23
2019-05-17T08:30:04.160Z,68.82
2019-05-17T08:35:04.321Z,68.65
2019-05-17T08:37:37.467Z,68.17
2019-05-17T08:40:10.804Z,68.24
2019-05-17T08:42:41.996Z,67.78
2019-05-17T08:45:12.928Z,67.77
2019-05-17T08:50:12.968Z,67.03
2019-05-17T08:52:44.291Z,67.43
2019-05-17T08:55:16.758Z,67.25
2019-05-17T09:00:17.033Z,65.67
2019-05-17T09:05:20.841Z,65.65
2019-05-17T09:08:10.802Z,65.10
2019-05-17T09:10:42.771Z,65.47
2019-05-17T09:13:14.830Z,65.32
2019-05-17T09:18:14.811Z,64.87
2019-05-17T09:20:45.732Z,64.91
2019-05-17T09:23:19.740Z,64.81
2019-05-17T09:25:50.779Z,66.03
2019-05-17T09:28:21.957Z,65.90
2019-05-17T09:30:53.004Z,65.66
2019-05-17T09:33:24.047Z,65.63
2019-05-17T09:35:55.003Z,65.46
2019-05-17T09:38:25.927Z,65.75
2019-05-17T09:40:56.927Z,65.82
2019-05-17T09:43:29.515Z,65.57
2019-05-17T09:46:01.550Z,65.69
2019-05-17T09:48:32.935Z,65.00
2019-05-17T09:51:03.879Z,65.25
2019-05-17T09:53:34.990Z,64.74
2019-05-17T09:56:06.298Z,65.04
2019-05-17T09:58:39.523Z,64.55
2019-05-17T10:01:10.226Z,64.30
2019-05-17T10:03:41.285Z,63.67
2019-05-17T10:06:12.248Z,63.93
2019-05-17T10:08:43.264Z,64.49
2019-05-17T10:11:14.526Z,64.85
2019-05-17T10:13:45.509Z,65.55
2019-05-17T10:16:16.495Z,64.96
2019-05-17T10:18:47.449Z,65.38
2019-05-17T10:21:19.859Z,64.64
2019-05-17T10:23:51.308Z,64.29
2019-05-17T10:26:22.622Z,64.86
2019-05-17T10:28:53.959Z,64.42
2019-05-17T10:31:25.409Z,65.07
2019-05-17T10:33:58.289Z,64.78
2019-05-17T10:36:29.454Z,64.88
2019-05-17T10:39:00.421Z,65.31
2019-05-17T10:41:31.392Z,64.96
2019-05-17T10:44:02.286Z,65.42
2019-05-17T10:46:33.184Z,65.47
2019-05-17T10:49:04.255Z,64.87
2019-05-17T10:51:35.260Z,64.82
2019-05-17T10:54:06.171Z,65.05
2019-05-17T10:56:37.072Z,65.59
2019-05-17T10:59:09.815Z,64.91
2019-05-17T11:01:40.755Z,65.82
2019-05-17T11:04:11.778Z,65.25
2019-05-17T11:06:43.270Z,65.48
2019-05-17T11:09:14.223Z,65.16
2019-05-17T11:11:45.354Z,65.11
2019-05-17T11:14:52.278Z,65.22
2019-05-17T11:17:30.761Z,65.40
2019-05-17T11:20:16.654Z,64.96
2019-05-17T11:23:04.281Z,64.68
2019-05-17T11:25:56.352Z,64.29
2019-05-17T11:28:28.294Z,64.60
2019-05-17T11:31:09.258Z,64.57
2019-05-17T11:33:40.267Z,64.10
2019-05-17T11:36:12.453Z,63.45
2019-05-17T11:38:43.457Z,63.30
2019-05-17T11:41:21.175Z,63.03
2019-05-17T11:43:48.379Z,62.75
2019-05-17T11:46:19.307Z,63.50
2019-05-17T11:48:51.648Z,63.91
2019-05-17T11:51:51.384Z,62.97
2019-05-17T11:54:22.400Z,62.44
2019-05-17T11:56:53.411Z,61.93
2019-05-17T11:59:25.092Z,60.64
2019-05-17T12:01:58.520Z,60.62
2019-05-17T12:04:29.595Z,58.96
2019-05-17T12:09:37.391Z,57.92
2019-05-17T12:12:03.442Z,58.49
2019-05-17T12:14:36.218Z,57.84
2019-05-17T12:17:06.885Z,58.39
2019-05-17T12:22:07.103Z,59.47
2019-05-17T12:27:07.564Z,60.56
2019-05-17T12:29:39.338Z,59.70
2019-05-17T12:34:39.086Z,59.01
2019-05-17T12:37:09.637Z,59.00
2019-05-17T12:44:42.106Z,56.89
2019-05-17T12:47:14.366Z,56.41
2019-05-17T12:52:14.166Z,56.10
2019-05-17T12:57:15.668Z,56.56
2019-05-17T13:02:18.377Z,57.21
2019-05-17T13:07:18.625Z,55.72
2019-05-17T13:09:53.624Z,56.83
2019-05-17T13:12:24.661Z,55.81
2019-05-17T13:14:56.453Z,54.61
2019-05-17T13:17:27.760Z,54.93
2019-05-17T13:24:58.837Z,55.09
2019-05-17T13:30:03.515Z,55.94
2019-05-17T13:32:34.599Z,56.37
2019-05-17T13:35:09.565Z,56.29
2019-05-17T13:37:40.530Z,56.37
2019-05-17T13:40:14.093Z,56.49
2019-05-17T13:42:45.179Z,56.36
2019-05-17T13:45:17.539Z,56.34
2019-05-17T13:47:48.424Z,56.65
2019-05-17T13:50:19.696Z,56.31
2019-05-17T13:52:50.691Z,56.29
2019-05-17T13:55:21.862Z,56.68
2019-05-17T13:57:52.807Z,56.77
2019-05-17T14:00:23.869Z,56.33
2019-05-17T14:02:54.810Z,57.24
2019-05-17T14:05:25.857Z,57.00
2019-05-17T14:07:56.868Z,56.21
2019-05-17T14:10:31.535Z,57.23
2019-05-17T14:13:00.760Z,56.70
2019-05-17T14:15:32.049Z,55.84
2019-05-17T14:18:03.654Z,55.25
2019-05-17T14:20:34.942Z,54.53
2019-05-17T14:23:06.555Z,54.75
2019-05-17T14:25:38.726Z,54.85
2019-05-17T14:28:11.485Z,54.50
2019-05-17T14:30:42.708Z,53.04
2019-05-17T14:33:13.961Z,53.80
2019-05-17T14:35:45.071Z,55.04
2019-05-17T14:41:05.607Z,54.44
2019-05-17T14:43:19.862Z,53.70
2019-05-17T14:45:50.889Z,55.26
2019-05-17T14:48:21.853Z,54.47
2019-05-17T14:50:52.988Z,54.73
2019-05-17T14:53:24.027Z,54.58
2019-05-17T14:55:55.082Z,55.12
2019-05-17T14:58:26.116Z,55.14
2019-05-17T15:00:57.161Z,54.56
2019-05-17T15:03:28.186Z,53.87
2019-05-17T15:05:59.099Z,54.25
2019-05-17T15:08:30.138Z,54.34
2019-05-17T15:11:01.210Z,54.45
2019-05-17T15:13:33.637Z,54.93
2019-05-17T15:16:05.570Z,55.07
2019-05-17T15:18:36.966Z,55.11
2019-05-17T15:21:08.364Z,55.13
2019-05-17T15:23:39.356Z,55.81
2019-05-17T15:26:10.318Z,55.71
2019-05-17T15:28:41.511Z,55.42
2019-05-17T15:31:12.505Z,55.63
2019-05-17T15:33:43.568Z,56.29
2019-05-17T15:36:14.538Z,55.53
2019-05-17T15:38:45.614Z,55.34
2019-05-17T15:41:16.724Z,55.00
2019-05-17T15:43:47.698Z,55.68
2019-05-17T15:46:18.740Z,56.00
2019-05-17T15:48:49.674Z,55.76
2019-05-17T15:51:20.768Z,55.03
2019-05-17T15:53:51.861Z,55.18
2019-05-17T15:56:22.896Z,55.08
2019-05-17T15:58:53.939Z,54.59
2019-05-17T16:01:24.914Z,54.85
2019-05-17T16:03:55.927Z,54.66
2019-05-17T16:06:26.991Z,55.27
2019-05-17T16:08:58.002Z,54.85
2019-05-17T16:11:28.972Z,55.20
2019-05-17T16:14:00.084Z,55.28
2019-05-17T16:16:31.116Z,55.38
2019-05-17T16:19:02.055Z,55.50
2019-05-17T16:21:33.108Z,55.35
2019-05-17T16:24:04.352Z,55.35
2019-05-17T16:26:35.448Z,55.35
2019-05-17T16:29:07.070Z,55.49
2019-05-17T16:31:40.919Z,55.63
2019-05-17T16:34:11.984Z,56.12
2019-05-17T16:36:43.023Z,56.33
2019-05-17T16:39:14.126Z,56.60
2019-05-17T16:41:45.177Z,56.11
2019-05-17T16:44:16.294Z,55.84
2019-05-17T16:46:47.290Z,56.00
2019-05-17T16:49:18.316Z,56.37
2019-05-17T16:51:49.317Z,56.18
2019-05-17T16:54:20.299Z,55.95
2019-05-17T16:56:51.279Z,55.41
2019-05-17T16:59:22.391Z,56.46
2019-05-17T17:01:53.520Z,56.45
2019-05-17T17:06:54.467Z,56.95
2019-05-17T17:09:25.665Z,56.53
2019-05-17T17:11:56.565Z,56.82
2019-05-17T17:14:28.021Z,56.66
2019-05-17T17:16:59.140Z,56.83
2019-05-17T17:19:30.106Z,56.80
2019-05-17T17:22:01.341Z,56.75
2019-05-17T17:24:32.352Z,57.47
2019-05-17T17:27:03.631Z,57.46
2019-05-17T17:29:34.776Z,57.44
2019-05-17T17:32:19.433Z,57.87
2019-05-17T17:34:39.486Z,57.92
2019-05-17T17:37:10.811Z,58.01
2019-05-17T17:39:42.524Z,57.72
2019-05-17T17:42:13.643Z,57.92
2019-05-17T17:44:47.640Z,58.38
2019-05-17T17:47:18.668Z,58.40
2019-05-17T17:49:51.017Z,58.31
2019-05-17T17:52:22.270Z,58.05
2019-05-17T17:54:53.377Z,58.05
2019-05-17T17:57:28.476Z,58.31
2019-05-17T17:59:59.679Z,58.17
2019-05-17T18:02:30.796Z,57.70
2019-05-17T18:05:04.041Z,57.90
2019-05-17T18:07:37.135Z,57.84
2019-05-17T18:12:55.645Z,57.70
2019-05-17T18:15:42.078Z,57.65
2019-05-17T18:18:16.440Z,57.59
2019-05-17T18:20:47.477Z,57.90
2019-05-17T18:23:22.972Z,58.00
2019-05-17T18:25:51.630Z,57.92
2019-05-17T18:28:45.168Z,58.21
2019-05-17T18:31:16.268Z,58.33
2019-05-17T18:33:47.371Z,58.62
2019-05-17T18:36:18.413Z,58.33
2019-05-17T18:38:51.461Z,59.06
2019-05-17T18:41:25.169Z,58.66
2019-05-17T18:43:58.156Z,58.87
2019-05-17T18:46:30.858Z,58.92
2019-05-17T18:54:07.477Z,59.54
2019-05-17T18:56:43.723Z,59.63
2019-05-17T18:59:19.373Z,59.49
2019-05-17T19:01:50.428Z,59.55
2019-05-17T19:04:21.470Z,59.43
2019-05-17T19:07:13.129Z,59.38
2019-05-17T19:09:58.368Z,59.07
2019-05-17T19:13:19.266Z,59.06
2019-05-17T19:16:51.218Z,58.97
2019-05-17T19:19:22.266Z,59.28
2019-05-17T19:21:53.137Z,59.27
2019-05-17T19:24:24.127Z,59.60
2019-05-17T19:26:55.265Z,59.47
2019-05-17T19:29:30.357Z,59.45
2019-05-17T19:32:03.564Z,59.43
2019-05-17T19:34:34.676Z,59.31
2019-05-17T19:37:08.870Z,59.30
2019-05-17T19:39:39.917Z,59.97
2019-05-17T19:42:10.771Z,59.84
2019-05-17T19:47:11.165Z,60.17
2019-05-17T19:52:15.760Z,59.82
2019-05-17T19:55:07.851Z,59.92
2019-05-17T19:57:40.648Z,59.65
2019-05-17T20:00:14.927Z,60.08
2019-05-17T20:05:18.713Z,59.39
2019-05-17T20:10:25.664Z,59.49
2019-05-17T20:15:34.536Z,59.91
2019-05-17T20:20:32.081Z,60.35
2019-05-17T20:25:32.043Z,60.44
2019-05-17T20:28:03.039Z,60.54
2019-05-17T20:30:41.194Z,60.78
2019-05-17T20:33:12.204Z,61.09
2019-05-17T20:35:43.284Z,60.76
2019-05-17T20:38:18.688Z,61.13
2019-05-17T20:41:27.522Z,62.46
2019-05-17T20:44:00.971Z,62.55
2019-05-17T20:46:40.772Z,62.66
2019-05-17T20:49:14.655Z,63.34
2019-05-17T20:51:45.623Z,63.16
2019-05-17T20:57:57.109Z,64.35
2019-05-17T21:00:28.273Z,64.67
2019-05-17T21:02:59.421Z,65.49
2019-05-17T21:05:40.608Z,65.14
2019-05-17T21:08:17.741Z,64.45
2019-05-17T21:10:49.045Z,64.78
2019-05-17T21:14:27.964Z,64.46
2019-05-17T21:16:55.810Z,64.33
2019-05-17T21:19:26.928Z,64.59
2019-05-17T21:21:57.969Z,64.18
2019-05-17T21:24:29.052Z,64.06
2019-05-17T21:27:00.121Z,63.66
2019-05-17T21:29:31.197Z,63.68
2019-05-17T21:32:02.320Z,63.60
2019-05-17T21:34:33.352Z,64.34
2019-05-17T21:37:04.446Z,64.36
2019-05-17T21:39:35.387Z,64.16
2019-05-17T21:42:06.400Z,63.96
2019-05-17T21:44:37.307Z,64.82
2019-05-17T21:47:08.246Z,64.00
2019-05-17T21:49:39.260Z,64.53
2019-05-17T21:52:10.261Z,64.46
2019-05-17T21:54:41.183Z,64.20
2019-05-17T21:57:12.330Z,64.09
2019-05-17T21:59:43.405Z,64.65
2019-05-17T22:02:14.440Z,64.22
2019-05-17T22:04:45.386Z,64.32
2019-05-17T22:07:16.444Z,64.11
2019-05-17T22:09:47.467Z,64.14
2019-05-17T22:12:18.535Z,64.09
2019-05-17T22:14:49.742Z,63.98
2019-05-17T22:17:21.060Z,62.91
2019-05-17T22:19:52.524Z,64.46
2019-05-17T22:22:23.687Z,65.07
2019-05-17T22:24:54.764Z,64.60
2019-05-17T22:27:25.822Z,64.26
2019-05-17T22:29:56.729Z,63.52
2019-05-17T22:32:27.605Z,63.55
2019-05-17T22:34:58.517Z,64.72
2019-05-17T22:37:29.539Z,64.75
2019-05-17T22:40:00.735Z,64.76
2019-05-17T22:42:31.826Z,64.84
2019-05-17T22:45:02.834Z,65.61
2019-05-17T22:47:33.835Z,65.36
2019-05-17T22:50:06.401Z,64.42
2019-05-17T22:52:37.363Z,64.57
2019-05-17T22:55:08.460Z,65.14
2019-05-17T22:57:39.637Z,64.71
2019-05-17T23:00:10.482Z,65.21
2019-05-17T23:02:41.394Z,65.50
2019-05-17T23:05:12.334Z,65.40
2019-05-17T23:07:43.239Z,65.53
2019-05-17T23:10:14.268Z,65.58
2019-05-17T23:12:45.249Z,66.11
2019-05-17T23:15:16.218Z,65.26
2019-05-17T23:17:47.144Z,65.64
2019-05-17T23:20:18.131Z,65.48
2019-05-17T23:22:49.067Z,66.21
2019-05-17T23:25:20.084Z,66.61
2019-05-17T23:27:50.917Z,66.59
2019-05-17T23:30:22.067Z,66.36
2019-05-17T23:32:53.534Z,66.13
2019-05-17T23:35:24.977Z,65.86
2019-05-17T23:37:56.371Z,66.30
2019-05-17T23:40:27.581Z,65.32
2019-05-17T23:42:58.619Z,65.16
2019-05-17T23:45:29.596Z,66.07
2019-05-17T23:48:00.688Z,65.76
2019-05-17T23:50:31.684Z,66.28
2019-05-17T23:53:02.641Z,67.27
2019-05-17T23:55:33.454Z,65.80
2019-05-17T23:58:04.468Z,66.49
